North East, Pennsylvania
Current Conditions -  °F | °C
As of 2:16 AM on Thursday 18 Dec 2014 (Local Time) from KERI Reporting Station
Overcast Overcast  
Wind Chill: 19°   Ceiling: 2200
Heat Index: 31°   Visibility: 10mi
Dew Point: 22°   Wind: 17mph
Humidity: 69%   Direction: 280°W
Pressure: 30.12"   Gusts: 25mph
Location:  42.22°N, 79.83°W
Report Text: KERI 180716Z 28015G22KT 10SM BKN022 OVC033 M01/M06 A3012 RMK AO2 T10061056
Loading
Personal Weather Stations






























Interactive Weather Map New forecast layout! Learn more

10-Day Weather Forecast

Advertisements
Track Severe Weather on mobile